sensor_id;sensor_type;location;lat;lon;timestamp;pressure;altitude;pressure_sealevel;temperature;humidity
85739;BME280;76182;41.498;22.100;2024-02-23T00:01:36;100260.56;;;8.77;80.97
85739;BME280;76182;41.498;22.100;2024-02-23T00:04:01;100263.56;;;8.72;79.01
85739;BME280;76182;41.498;22.100;2024-02-23T00:06:28;100263.72;;;8.71;79.40
85739;BME280;76182;41.498;22.100;2024-02-23T00:08:54;100262.47;;;8.64;79.25
85739;BME280;76182;41.498;22.100;2024-02-23T00:11:20;100264.28;;;8.63;79.55
85739;BME280;76182;41.498;22.100;2024-02-23T00:13:46;100265.38;;;8.61;79.63
85739;BME280;76182;41.498;22.100;2024-02-23T00:16:11;100267.19;;;8.60;79.36
85739;BME280;76182;41.498;22.100;2024-02-23T00:18:37;100255.84;;;8.69;79.51
85739;BME280;76182;41.498;22.100;2024-02-23T00:21:03;100255.94;;;8.79;80.41
85739;BME280;76182;41.498;22.100;2024-02-23T00:23:29;100256.94;;;8.78;78.87
85739;BME280;76182;41.498;22.100;2024-02-23T00:25:54;100251.84;;;8.75;80.21
85739;BME280;76182;41.498;22.100;2024-02-23T00:28:20;100256.09;;;8.77;80.71
85739;BME280;76182;41.498;22.100;2024-02-23T00:30:45;100250.63;;;8.79;79.07
85739;BME280;76182;41.498;22.100;2024-02-23T00:33:11;100247.25;;;8.77;80.44
85739;BME280;76182;41.498;22.100;2024-02-23T00:35:36;100246.28;;;8.78;80.61
85739;BME280;76182;41.498;22.100;2024-02-23T00:38:01;100253.03;;;8.82;80.10
85739;BME280;76182;41.498;22.100;2024-02-23T00:40:27;100237.09;;;8.82;79.87
85739;BME280;76182;41.498;22.100;2024-02-23T00:42:52;100246.63;;;8.85;78.99
85739;BME280;76182;41.498;22.100;2024-02-23T00:45:18;100236.72;;;8.87;78.46
85739;BME280;76182;41.498;22.100;2024-02-23T00:47:43;100240.59;;;8.94;78.56
85739;BME280;76182;41.498;22.100;2024-02-23T00:50:10;100239.34;;;8.98;77.38
85739;BME280;76182;41.498;22.100;2024-02-23T00:52:35;100241.19;;;8.97;78.12
85739;BME280;76182;41.498;22.100;2024-02-23T00:55:01;100238.50;;;8.97;79.16
85739;BME280;76182;41.498;22.100;2024-02-23T00:57:26;100236.34;;;9.02;78.44
85739;BME280;76182;41.498;22.100;2024-02-23T00:59:55;100231.72;;;9.04;77.08
85739;BME280;76182;41.498;22.100;2024-02-23T01:02:21;100238.50;;;8.97;79.13
85739;BME280;76182;41.498;22.100;2024-02-23T01:04:46;100233.09;;;8.99;78.55
85739;BME280;76182;41.498;22.100;2024-02-23T01:07:12;100233.34;;;8.96;78.41
85739;BME280;76182;41.498;22.100;2024-02-23T01:09:38;100232.50;;;8.95;78.32
85739;BME280;76182;41.498;22.100;2024-02-23T01:12:03;100231.50;;;8.96;79.42
85739;BME280;76182;41.498;22.100;2024-02-23T01:14:29;100222.44;;;8.99;78.14
85739;BME280;76182;41.498;22.100;2024-02-23T01:16:54;100221.56;;;8.98;78.11
85739;BME280;76182;41.498;22.100;2024-02-23T01:19:20;100224.22;;;8.98;80.14
85739;BME280;76182;41.498;22.100;2024-02-23T01:21:45;100221.38;;;8.90;79.16
85739;BME280;76182;41.498;22.100;2024-02-23T01:24:11;100209.50;;;8.94;79.87
85739;BME280;76182;41.498;22.100;2024-02-23T01:26:36;100210.47;;;8.93;80.08
85739;BME280;76182;41.498;22.100;2024-02-23T01:29:02;100206.25;;;8.91;78.78
85739;BME280;76182;41.498;22.100;2024-02-23T01:31:29;100195.97;;;8.86;79.92
85739;BME280;76182;41.498;22.100;2024-02-23T01:33:54;100193.09;;;8.78;79.88
85739;BME280;76182;41.498;22.100;2024-02-23T01:36:20;100196.84;;;8.75;77.73
85739;BME280;76182;41.498;22.100;2024-02-23T01:38:45;100187.91;;;8.76;77.29
85739;BME280;76182;41.498;22.100;2024-02-23T01:41:11;100185.59;;;8.72;79.40
85739;BME280;76182;41.498;22.100;2024-02-23T01:43:37;100190.19;;;8.70;78.07
85739;BME280;76182;41.498;22.100;2024-02-23T01:46:03;100179.94;;;8.76;77.85
85739;BME280;76182;41.498;22.100;2024-02-23T01:48:30;100187.53;;;8.70;76.31
85739;BME280;76182;41.498;22.100;2024-02-23T01:50:56;100182.09;;;8.71;76.27
85739;BME280;76182;41.498;22.100;2024-02-23T01:53:22;100180.78;;;8.66;75.55
85739;BME280;76182;41.498;22.100;2024-02-23T01:55:50;100178.34;;;8.63;76.91
85739;BME280;76182;41.498;22.100;2024-02-23T01:58:17;100174.50;;;8.55;77.10
85739;BME280;76182;41.498;22.100;2024-02-23T02:00:43;100167.25;;;8.46;76.19
85739;BME280;76182;41.498;22.100;2024-02-23T02:03:08;100173.28;;;8.59;77.22
85739;BME280;76182;41.498;22.100;2024-02-23T02:05:36;100175.34;;;8.56;77.05
85739;BME280;76182;41.498;22.100;2024-02-23T02:08:02;100170.16;;;8.54;77.22
85739;BME280;76182;41.498;22.100;2024-02-23T02:10:28;100166.53;;;8.55;77.67
85739;BME280;76182;41.498;22.100;2024-02-23T02:12:53;100152.41;;;8.55;78.31
85739;BME280;76182;41.498;22.100;2024-02-23T02:15:20;100161.94;;;8.57;77.26
85739;BME280;76182;41.498;22.100;2024-02-23T02:17:47;100161.22;;;8.55;78.48
85739;BME280;76182;41.498;22.100;2024-02-23T02:20:13;100150.56;;;8.55;78.47
85739;BME280;76182;41.498;22.100;2024-02-23T02:22:39;100149.34;;;8.59;76.12
85739;BME280;76182;41.498;22.100;2024-02-23T02:25:05;100143.81;;;8.51;77.67
85739;BME280;76182;41.498;22.100;2024-02-23T02:27:31;100147.44;;;8.50;76.81
85739;BME280;76182;41.498;22.100;2024-02-23T02:29:57;100147.78;;;8.57;77.81
85739;BME280;76182;41.498;22.100;2024-02-23T02:32:23;100143.06;;;8.61;77.56
85739;BME280;76182;41.498;22.100;2024-02-23T02:34:48;100144.19;;;8.58;79.22
85739;BME280;76182;41.498;22.100;2024-02-23T02:37:14;100152.00;;;8.59;78.34
85739;BME280;76182;41.498;22.100;2024-02-23T02:39:40;100149.84;;;8.65;79.07
85739;BME280;76182;41.498;22.100;2024-02-23T02:42:05;100150.44;;;8.68;78.00
85739;BME280;76182;41.498;22.100;2024-02-23T02:44:31;100154.91;;;8.68;79.32
85739;BME280;76182;41.498;22.100;2024-02-23T02:46:56;100146.53;;;8.72;79.48
85739;BME280;76182;41.498;22.100;2024-02-23T02:49:22;100151.50;;;8.77;79.51
85739;BME280;76182;41.498;22.100;2024-02-23T02:51:48;100147.53;;;8.71;78.35
85739;BME280;76182;41.498;22.100;2024-02-23T02:54:13;100155.84;;;8.67;79.85
85739;BME280;76182;41.498;22.100;2024-02-23T02:56:47;100163.38;;;8.62;80.85
85739;BME280;76182;41.498;22.100;2024-02-23T02:59:12;100159.53;;;8.54;79.68
85739;BME280;76182;41.498;22.100;2024-02-23T03:01:39;100160.03;;;8.48;79.16
85739;BME280;76182;41.498;22.100;2024-02-23T03:04:05;100149.75;;;8.44;80.32
85739;BME280;76182;41.498;22.100;2024-02-23T03:06:30;100147.53;;;8.38;79.49
85739;BME280;76182;41.498;22.100;2024-02-23T03:08:56;100150.13;;;8.39;79.07
85739;BME280;76182;41.498;22.100;2024-02-23T03:11:21;100151.81;;;8.40;78.53
85739;BME280;76182;41.498;22.100;2024-02-23T03:13:47;100155.16;;;8.31;78.97
85739;BME280;76182;41.498;22.100;2024-02-23T03:16:20;100146.94;;;8.34;77.69
85739;BME280;76182;41.498;22.100;2024-02-23T03:18:46;100143.09;;;8.38;77.78
85739;BME280;76182;41.498;22.100;2024-02-23T03:21:12;100149.88;;;8.42;79.05
85739;BME280;76182;41.498;22.100;2024-02-23T03:23:39;100139.56;;;8.38;78.53
85739;BME280;76182;41.498;22.100;2024-02-23T03:26:06;100148.31;;;8.40;77.69
85739;BME280;76182;41.498;22.100;2024-02-23T03:28:32;100148.31;;;8.40;79.12
85739;BME280;76182;41.498;22.100;2024-02-23T03:30:58;100138.97;;;8.34;77.43
85739;BME280;76182;41.498;22.100;2024-02-23T03:33:23;100144.88;;;8.38;76.20
85739;BME280;76182;41.498;22.100;2024-02-23T03:35:49;100147.47;;;8.39;77.61
85739;BME280;76182;41.498;22.100;2024-02-23T03:38:14;100137.66;;;8.40;79.58
85739;BME280;76182;41.498;22.100;2024-02-23T03:40:40;100141.03;;;8.42;77.99
85739;BME280;76182;41.498;22.100;2024-02-23T03:43:06;100134.28;;;8.49;77.19
85739;BME280;76182;41.498;22.100;2024-02-23T03:45:32;100131.03;;;8.45;78.00
85739;BME280;76182;41.498;22.100;2024-02-23T03:47:58;100135.72;;;8.53;79.86
85739;BME280;76182;41.498;22.100;2024-02-23T03:50:24;100133.06;;;8.53;78.87
85739;BME280;76182;41.498;22.100;2024-02-23T03:52:50;100126.91;;;8.41;79.87
85739;BME280;76182;41.498;22.100;2024-02-23T03:55:15;100135.38;;;8.46;79.23
85739;BME280;76182;41.498;22.100;2024-02-23T03:57:41;100139.69;;;8.47;79.24
85739;BME280;76182;41.498;22.100;2024-02-23T04:00:07;100136.09;;;8.48;79.41
85739;BME280;76182;41.498;22.100;2024-02-23T04:02:33;100142.34;;;8.58;78.72
85739;BME280;76182;41.498;22.100;2024-02-23T04:04:59;100153.19;;;8.67;79.62
85739;BME280;76182;41.498;22.100;2024-02-23T04:07:24;100158.38;;;8.79;79.43
85739;BME280;76182;41.498;22.100;2024-02-23T04:09:50;100148.09;;;8.86;78.43
85739;BME280;76182;41.498;22.100;2024-02-23T04:12:23;100159.41;;;8.99;79.00
85739;BME280;76182;41.498;22.100;2024-02-23T04:14:49;100155.53;;;9.03;78.09
85739;BME280;76182;41.498;22.100;2024-02-23T04:17:15;100157.03;;;9.17;76.81
85739;BME280;76182;41.498;22.100;2024-02-23T04:19:41;100155.69;;;9.23;76.32
85739;BME280;76182;41.498;22.100;2024-02-23T04:22:08;100152.69;;;9.16;75.82
85739;BME280;76182;41.498;22.100;2024-02-23T04:24:38;100158.00;;;8.84;75.58
85739;BME280;76182;41.498;22.100;2024-02-23T04:27:05;100157.09;;;8.63;76.59
85739;BME280;76182;41.498;22.100;2024-02-23T04:29:31;100149.50;;;8.47;77.11
85739;BME280;76182;41.498;22.100;2024-02-23T04:31:58;100147.53;;;8.60;79.92
85739;BME280;76182;41.498;22.100;2024-02-23T04:34:23;100144.63;;;8.74;77.31
85739;BME280;76182;41.498;22.100;2024-02-23T04:36:49;100145.88;;;8.91;78.43
85739;BME280;76182;41.498;22.100;2024-02-23T04:39:14;100149.38;;;9.03;77.58
85739;BME280;76182;41.498;22.100;2024-02-23T04:41:40;100141.06;;;9.17;78.60
85739;BME280;76182;41.498;22.100;2024-02-23T04:44:05;100149.28;;;9.25;76.35
85739;BME280;76182;41.498;22.100;2024-02-23T04:46:31;100144.28;;;9.32;78.50
85739;BME280;76182;41.498;22.100;2024-02-23T04:48:56;100141.44;;;9.24;77.70
85739;BME280;76182;41.498;22.100;2024-02-23T04:51:22;100143.63;;;9.19;76.60
85739;BME280;76182;41.498;22.100;2024-02-23T04:53:50;100137.56;;;9.17;76.95
85739;BME280;76182;41.498;22.100;2024-02-23T04:56:16;100145.09;;;9.12;78.77
85739;BME280;76182;41.498;22.100;2024-02-23T04:58:42;100138.69;;;9.14;78.65
85739;BME280;76182;41.498;22.100;2024-02-23T05:01:08;100137.81;;;9.14;78.22
85739;BME280;76182;41.498;22.100;2024-02-23T05:03:34;100144.38;;;9.10;78.01
85739;BME280;76182;41.498;22.100;2024-02-23T05:05:59;100146.81;;;9.01;78.78
85739;BME280;76182;41.498;22.100;2024-02-23T05:08:24;100151.81;;;8.95;79.70
85739;BME280;76182;41.498;22.100;2024-02-23T05:10:51;100150.13;;;8.94;78.11
85739;BME280;76182;41.498;22.100;2024-02-23T05:13:17;100145.38;;;8.97;78.74
85739;BME280;76182;41.498;22.100;2024-02-23T05:15:42;100159.16;;;9.02;78.50
85739;BME280;76182;41.498;22.100;2024-02-23T05:18:08;100167.50;;;9.09;79.89
85739;BME280;76182;41.498;22.100;2024-02-23T05:20:33;100170.00;;;9.11;77.87
85739;BME280;76182;41.498;22.100;2024-02-23T05:22:59;100183.06;;;9.14;78.72
85739;BME280;76182;41.498;22.100;2024-02-23T05:25:24;100176.66;;;9.16;76.40
85739;BME280;76182;41.498;22.100;2024-02-23T05:27:51;100182.63;;;9.09;74.73
85739;BME280;76182;41.498;22.100;2024-02-23T05:30:17;100192.25;;;8.66;73.43
85739;BME280;76182;41.498;22.100;2024-02-23T05:32:42;100186.06;;;8.32;74.73
85739;BME280;76182;41.498;22.100;2024-02-23T05:35:07;100191.03;;;8.03;76.53
85739;BME280;76182;41.498;22.100;2024-02-23T05:37:35;100199.09;;;7.90;76.38
85739;BME280;76182;41.498;22.100;2024-02-23T05:40:00;100208.59;;;7.70;78.00
85739;BME280;76182;41.498;22.100;2024-02-23T05:42:29;100207.06;;;7.79;78.37
85739;BME280;76182;41.498;22.100;2024-02-23T05:44:55;100195.00;;;7.97;78.16
85739;BME280;76182;41.498;22.100;2024-02-23T05:47:20;100186.78;;;8.23;77.42
85739;BME280;76182;41.498;22.100;2024-02-23T05:49:47;100180.16;;;8.17;78.72
85739;BME280;76182;41.498;22.100;2024-02-23T05:52:12;100187.88;;;7.98;77.62
85739;BME280;76182;41.498;22.100;2024-02-23T05:54:38;100189.53;;;7.76;80.42
85739;BME280;76182;41.498;22.100;2024-02-23T05:57:03;100188.66;;;7.64;79.34
85739;BME280;76182;41.498;22.100;2024-02-23T05:59:29;100198.06;;;7.57;80.33
85739;BME280;76182;41.498;22.100;2024-02-23T06:01:55;100198.13;;;7.45;78.75
85739;BME280;76182;41.498;22.100;2024-02-23T06:04:24;100199.75;;;7.34;79.55
85739;BME280;76182;41.498;22.100;2024-02-23T06:06:49;100198.75;;;7.24;80.07
85739;BME280;76182;41.498;22.100;2024-02-23T06:09:15;100191.56;;;7.37;80.21
85739;BME280;76182;41.498;22.100;2024-02-23T06:11:41;100192.66;;;7.70;80.09
85739;BME280;76182;41.498;22.100;2024-02-23T06:14:07;100195.50;;;8.02;78.25
85739;BME280;76182;41.498;22.100;2024-02-23T06:16:33;100199.34;;;8.09;78.89
85739;BME280;76182;41.498;22.100;2024-02-23T06:18:58;100199.97;;;8.24;78.31
85739;BME280;76182;41.498;22.100;2024-02-23T06:21:24;100196.59;;;8.22;77.99
85739;BME280;76182;41.498;22.100;2024-02-23T06:23:49;100197.56;;;8.21;77.98
85739;BME280;76182;41.498;22.100;2024-02-23T06:26:48;100207.75;;;8.61;75.71
85739;BME280;76182;41.498;22.100;2024-02-23T06:29:14;100197.38;;;9.01;75.19
85739;BME280;76182;41.498;22.100;2024-02-23T06:31:40;100206.13;;;9.98;72.10
85739;BME280;76182;41.498;22.100;2024-02-23T06:34:07;100207.94;;;10.90;72.81
85739;BME280;76182;41.498;22.100;2024-02-23T06:36:32;100190.41;;;11.94;69.67
85739;BME280;76182;41.498;22.100;2024-02-23T06:38:58;100195.44;;;12.54;67.57
85739;BME280;76182;41.498;22.100;2024-02-23T06:41:24;100187.06;;;13.40;64.48
85739;BME280;76182;41.498;22.100;2024-02-23T06:43:50;100183.00;;;13.80;62.84
85739;BME280;76182;41.498;22.100;2024-02-23T06:46:18;100175.69;;;13.64;62.86
85739;BME280;76182;41.498;22.100;2024-02-23T06:48:45;100177.28;;;14.01;61.52
85739;BME280;76182;41.498;22.100;2024-02-23T06:51:11;100184.56;;;13.64;62.82
85739;BME280;76182;41.498;22.100;2024-02-23T06:53:36;100183.91;;;13.88;62.77
85739;BME280;76182;41.498;22.100;2024-02-23T06:56:03;100183.19;;;14.04;61.80
85739;BME280;76182;41.498;22.100;2024-02-23T06:58:29;100177.31;;;13.83;62.40
85739;BME280;76182;41.498;22.100;2024-02-23T07:00:54;100174.94;;;13.98;62.60
85739;BME280;76182;41.498;22.100;2024-02-23T07:03:20;100175.41;;;14.19;61.80
85739;BME280;76182;41.498;22.100;2024-02-23T07:05:45;100167.91;;;14.05;61.01
85739;BME280;76182;41.498;22.100;2024-02-23T07:08:12;100164.75;;;14.70;60.63
85739;BME280;76182;41.498;22.100;2024-02-23T07:10:37;100174.84;;;14.76;59.45
85739;BME280;76182;41.498;22.100;2024-02-23T07:13:03;100167.72;;;15.25;58.91
85739;BME280;76182;41.498;22.100;2024-02-23T07:15:29;100167.91;;;15.24;57.40
85739;BME280;76182;41.498;22.100;2024-02-23T07:17:55;100170.41;;;15.25;58.80
85739;BME280;76182;41.498;22.100;2024-02-23T07:20:21;100168.94;;;15.72;56.24
85739;BME280;76182;41.498;22.100;2024-02-23T07:22:47;100171.28;;;15.50;56.78
85739;BME280;76182;41.498;22.100;2024-02-23T07:25:20;100175.31;;;15.55;56.84
85739;BME280;76182;41.498;22.100;2024-02-23T07:27:46;100174.28;;;15.31;58.08
85739;BME280;76182;41.498;22.100;2024-02-23T07:30:13;100165.06;;;14.67;59.76
85739;BME280;76182;41.498;22.100;2024-02-23T07:32:39;100162.31;;;15.01;58.05
85739;BME280;76182;41.498;22.100;2024-02-23T07:35:05;100151.72;;;14.91;59.46
85739;BME280;76182;41.498;22.100;2024-02-23T07:37:30;100150.53;;;14.94;58.83
85739;BME280;76182;41.498;22.100;2024-02-23T07:39:56;100156.66;;;14.62;60.02
85739;BME280;76182;41.498;22.100;2024-02-23T07:42:21;100161.09;;;13.84;61.84
85739;BME280;76182;41.498;22.100;2024-02-23T07:44:47;100158.22;;;13.78;64.13
85739;BME280;76182;41.498;22.100;2024-02-23T07:47:12;100158.56;;;13.83;63.86
85739;BME280;76182;41.498;22.100;2024-02-23T07:49:38;100157.13;;;13.71;62.97
85739;BME280;76182;41.498;22.100;2024-02-23T07:52:06;100155.44;;;13.96;63.29
85739;BME280;76182;41.498;22.100;2024-02-23T07:54:32;100149.69;;;13.82;62.79
85739;BME280;76182;41.498;22.100;2024-02-23T07:56:58;100149.03;;;14.14;63.12
85739;BME280;76182;41.498;22.100;2024-02-23T07:59:24;100146.31;;;14.06;63.08
85739;BME280;76182;41.498;22.100;2024-02-23T08:01:50;100154.06;;;14.18;61.85
85739;BME280;76182;41.498;22.100;2024-02-23T08:04:15;100145.25;;;13.99;62.31
85739;BME280;76182;41.498;22.100;2024-02-23T08:06:42;100147.44;;;14.30;60.98
85739;BME280;76182;41.498;22.100;2024-02-23T08:09:10;100148.75;;;14.26;60.53
85739;BME280;76182;41.498;22.100;2024-02-23T08:11:36;100144.09;;;14.36;61.17
85739;BME280;76182;41.498;22.100;2024-02-23T08:14:01;100146.28;;;14.32;60.48
85739;BME280;76182;41.498;22.100;2024-02-23T08:16:28;100134.31;;;14.19;60.73
85739;BME280;76182;41.498;22.100;2024-02-23T08:18:53;100155.56;;;14.46;62.23
85739;BME280;76182;41.498;22.100;2024-02-23T08:21:19;100161.22;;;14.35;60.73
85739;BME280;76182;41.498;22.100;2024-02-23T08:23:45;100154.53;;;14.39;60.21
85739;BME280;76182;41.498;22.100;2024-02-23T08:26:10;100157.31;;;14.55;60.40
85739;BME280;76182;41.498;22.100;2024-02-23T08:28:36;100171.97;;;14.69;61.34
85739;BME280;76182;41.498;22.100;2024-02-23T08:31:01;100163.06;;;14.69;59.70
85739;BME280;76182;41.498;22.100;2024-02-23T08:33:27;100150.81;;;14.74;58.71
85739;BME280;76182;41.498;22.100;2024-02-23T08:35:52;100152.38;;;14.85;58.86
85739;BME280;76182;41.498;22.100;2024-02-23T08:38:18;100150.81;;;14.74;59.23
85739;BME280;76182;41.498;22.100;2024-02-23T08:40:44;100142.63;;;14.76;60.25
85739;BME280;76182;41.498;22.100;2024-02-23T08:43:10;100142.94;;;14.81;59.85
85739;BME280;76182;41.498;22.100;2024-02-23T08:45:36;100146.84;;;14.87;59.21
85739;BME280;76182;41.498;22.100;2024-02-23T08:48:01;100143.13;;;14.88;58.59
85739;BME280;76182;41.498;22.100;2024-02-23T08:50:28;100146.78;;;14.78;60.58
85739;BME280;76182;41.498;22.100;2024-02-23T08:52:54;100145.38;;;15.17;60.39
85739;BME280;76182;41.498;22.100;2024-02-23T08:55:19;100140.53;;;15.20;57.89
85739;BME280;76182;41.498;22.100;2024-02-23T08:57:46;100137.00;;;15.36;57.90
85739;BME280;76182;41.498;22.100;2024-02-23T09:00:12;100116.31;;;15.28;58.40
85739;BME280;76182;41.498;22.100;2024-02-23T09:02:38;100141.38;;;15.45;58.31
85739;BME280;76182;41.498;22.100;2024-02-23T09:05:04;100139.84;;;15.26;57.19
85739;BME280;76182;41.498;22.100;2024-02-23T09:07:30;100128.59;;;15.23;57.99
85739;BME280;76182;41.498;22.100;2024-02-23T09:09:55;100132.28;;;15.38;57.73
85739;BME280;76182;41.498;22.100;2024-02-23T09:12:22;100130.94;;;15.34;57.55
85739;BME280;76182;41.498;22.100;2024-02-23T09:14:47;100129.78;;;15.61;57.83
85739;BME280;76182;41.498;22.100;2024-02-23T09:17:13;100127.38;;;15.91;57.31
85739;BME280;76182;41.498;22.100;2024-02-23T09:19:38;100123.06;;;15.73;57.04
85739;BME280;76182;41.498;22.100;2024-02-23T09:22:04;100118.69;;;15.81;56.94
85739;BME280;76182;41.498;22.100;2024-02-23T09:24:30;100123.53;;;15.93;55.57
85739;BME280;76182;41.498;22.100;2024-02-23T09:26:55;100104.38;;;15.72;55.62
85739;BME280;76182;41.498;22.100;2024-02-23T09:29:21;100110.72;;;16.04;55.09
85739;BME280;76182;41.498;22.100;2024-02-23T09:31:47;100116.78;;;15.97;56.48
85739;BME280;76182;41.498;22.100;2024-02-23T09:34:13;100109.91;;;15.87;55.30
85739;BME280;76182;41.498;22.100;2024-02-23T09:36:38;100109.34;;;16.08;56.42
85739;BME280;76182;41.498;22.100;2024-02-23T09:39:04;100107.66;;;16.07;56.55
85739;BME280;76182;41.498;22.100;2024-02-23T09:41:32;100099.88;;;16.20;55.01
85739;BME280;76182;41.498;22.100;2024-02-23T09:44:01;100104.56;;;16.26;54.83
85739;BME280;76182;41.498;22.100;2024-02-23T09:46:27;100100.22;;;16.25;53.95
85739;BME280;76182;41.498;22.100;2024-02-23T09:48:54;100102.06;;;16.25;55.28
85739;BME280;76182;41.498;22.100;2024-02-23T09:51:22;100100.75;;;16.52;55.31
85739;BME280;76182;41.498;22.100;2024-02-23T09:53:49;100089.63;;;16.24;53.41
85739;BME280;76182;41.498;22.100;2024-02-23T09:56:17;100097.44;;;16.73;53.19
85739;BME280;76182;41.498;22.100;2024-02-23T09:58:46;100091.38;;;16.71;54.38
85739;BME280;76182;41.498;22.100;2024-02-23T10:01:19;100088.88;;;16.77;54.00
85739;BME280;76182;41.498;22.100;2024-02-23T10:03:46;100095.59;;;16.81;52.79
85739;BME280;76182;41.498;22.100;2024-02-23T10:06:11;100093.69;;;16.51;54.11
85739;BME280;76182;41.498;22.100;2024-02-23T10:08:37;100097.22;;;16.51;54.01
85739;BME280;76182;41.498;22.100;2024-02-23T10:11:02;100083.03;;;16.65;54.31
85739;BME280;76182;41.498;22.100;2024-02-23T10:13:30;100088.81;;;16.85;52.94
85739;BME280;76182;41.498;22.100;2024-02-23T10:15:55;100086.00;;;17.02;52.74
85739;BME280;76182;41.498;22.100;2024-02-23T10:18:22;100080.56;;;17.10;52.89
85739;BME280;76182;41.498;22.100;2024-02-23T10:20:48;100088.28;;;16.90;52.66
85739;BME280;76182;41.498;22.100;2024-02-23T10:23:15;100076.66;;;16.89;53.37
85739;BME280;76182;41.498;22.100;2024-02-23T10:25:41;100082.59;;;17.08;51.79
85739;BME280;76182;41.498;22.100;2024-02-23T10:28:07;100076.09;;;17.17;51.45
85739;BME280;76182;41.498;22.100;2024-02-23T10:30:33;100069.38;;;17.36;50.25
85739;BME280;76182;41.498;22.100;2024-02-23T10:32:58;100058.88;;;16.80;51.53
85739;BME280;76182;41.498;22.100;2024-02-23T10:35:25;100072.41;;;16.95;52.46
85739;BME280;76182;41.498;22.100;2024-02-23T10:37:52;100074.84;;;17.05;51.81
85739;BME280;76182;41.498;22.100;2024-02-23T10:40:19;100064.19;;;17.34;50.66
85739;BME280;76182;41.498;22.100;2024-02-23T10:42:47;100054.28;;;17.27;51.40
85739;BME280;76182;41.498;22.100;2024-02-23T10:45:18;100058.69;;;17.28;50.48
85739;BME280;76182;41.498;22.100;2024-02-23T10:47:44;100059.31;;;17.30;50.74
85739;BME280;76182;41.498;22.100;2024-02-23T10:50:10;100053.72;;;16.94;51.65
85739;BME280;76182;41.498;22.100;2024-02-23T10:52:43;100049.63;;;17.21;50.79
85739;BME280;76182;41.498;22.100;2024-02-23T10:55:09;100042.56;;;17.20;51.07
85739;BME280;76182;41.498;22.100;2024-02-23T10:57:35;100048.25;;;17.02;51.70
85739;BME280;76182;41.498;22.100;2024-02-23T11:00:01;100050.06;;;16.86;52.14
85739;BME280;76182;41.498;22.100;2024-02-23T11:02:31;100027.53;;;17.25;51.74
85739;BME280;76182;41.498;22.100;2024-02-23T11:05:00;100032.06;;;17.77;50.93
85739;BME280;76182;41.498;22.100;2024-02-23T11:07:25;100019.66;;;17.68;50.04
85739;BME280;76182;41.498;22.100;2024-02-23T11:10:02;100031.34;;;17.46;50.03
85739;BME280;76182;41.498;22.100;2024-02-23T11:12:30;100012.31;;;17.47;50.84
85739;BME280;76182;41.498;22.100;2024-02-23T11:14:59;100020.97;;;17.72;50.08
85739;BME280;76182;41.498;22.100;2024-02-23T11:17:30;100023.34;;;17.52;49.76
85739;BME280;76182;41.498;22.100;2024-02-23T11:19:56;100014.81;;;17.49;49.71
85739;BME280;76182;41.498;22.100;2024-02-23T11:22:33;100013.41;;;17.68;50.46
85739;BME280;76182;41.498;22.100;2024-02-23T11:25:07;100010.34;;;17.41;49.34
85739;BME280;76182;41.498;22.100;2024-02-23T11:27:37;100013.63;;;17.13;49.98
85739;BME280;76182;41.498;22.100;2024-02-23T11:30:07;100003.09;;;17.04;50.14
85739;BME280;76182;41.498;22.100;2024-02-23T11:32:58;100006.38;;;17.14;49.83
85739;BME280;76182;41.498;22.100;2024-02-23T11:35:25;100005.66;;;17.20;51.06
85739;BME280;76182;41.498;22.100;2024-02-23T11:37:53;100000.31;;;17.50;51.08
85739;BME280;76182;41.498;22.100;2024-02-23T11:40:27;99993.91;;;17.66;50.66
85739;BME280;76182;41.498;22.100;2024-02-23T11:42:54;99996.00;;;17.55;50.16
85739;BME280;76182;41.498;22.100;2024-02-23T11:45:20;99993.97;;;17.72;50.09
85739;BME280;76182;41.498;22.100;2024-02-23T11:47:47;99997.63;;;17.79;49.30
85739;BME280;76182;41.498;22.100;2024-02-23T11:50:13;99995.47;;;18.41;48.74
85739;BME280;76182;41.498;22.100;2024-02-23T11:52:39;99999.41;;;18.38;47.78
85739;BME280;76182;41.498;22.100;2024-02-23T11:55:05;99986.00;;;18.30;47.96
85739;BME280;76182;41.498;22.100;2024-02-23T11:57:32;99982.31;;;18.16;48.39
85739;BME280;76182;41.498;22.100;2024-02-23T11:59:58;99982.56;;;18.21;48.61
85739;BME280;76182;41.498;22.100;2024-02-23T12:02:24;99981.13;;;18.04;48.88
85739;BME280;76182;41.498;22.100;2024-02-23T12:04:49;99984.22;;;17.86;49.22
85739;BME280;76182;41.498;22.100;2024-02-23T12:07:15;99976.94;;;18.01;49.50
85739;BME280;76182;41.498;22.100;2024-02-23T12:09:41;99975.09;;;18.02;48.98
85739;BME280;76182;41.498;22.100;2024-02-23T12:12:08;99974.19;;;17.80;49.91
85739;BME280;76182;41.498;22.100;2024-02-23T12:14:37;99956.47;;;18.07;49.18
85739;BME280;76182;41.498;22.100;2024-02-23T12:17:03;99950.50;;;17.97;47.83
85739;BME280;76182;41.498;22.100;2024-02-23T12:19:32;99942.38;;;18.12;48.78
85739;BME280;76182;41.498;22.100;2024-02-23T12:22:01;99939.28;;;18.15;48.20
85739;BME280;76182;41.498;22.100;2024-02-23T12:24:26;99944.53;;;18.16;48.48
85739;BME280;76182;41.498;22.100;2024-02-23T12:26:55;99946.13;;;17.96;48.56
85739;BME280;76182;41.498;22.100;2024-02-23T12:29:22;99940.25;;;18.07;49.26
85739;BME280;76182;41.498;22.100;2024-02-23T12:31:47;99934.91;;;18.28;48.68
85739;BME280;76182;41.498;22.100;2024-02-23T12:34:13;99943.22;;;18.12;49.01
85739;BME280;76182;41.498;22.100;2024-02-23T12:36:39;99931.22;;;18.00;49.22
85739;BME280;76182;41.498;22.100;2024-02-23T12:39:05;99940.81;;;18.02;49.20
85739;BME280;76182;41.498;22.100;2024-02-23T12:41:31;99938.03;;;17.96;50.07